createdAt,value
2019-01-02T00:01:18.970Z,3.17
2019-01-02T00:03:47.774Z,2.93
2019-01-02T00:06:16.459Z,3.40
2019-01-02T00:08:46.480Z,3.03
2019-01-02T00:11:15.309Z,2.87
2019-01-02T00:13:44.355Z,3.73
2019-01-02T00:16:13.173Z,4.77
2019-01-02T00:18:42.314Z,3.13
2019-01-02T00:21:11.236Z,3.17
2019-01-02T00:23:40.351Z,4.40
2019-01-02T00:26:09.197Z,3.60
2019-01-02T00:28:38.830Z,4.20
2019-01-02T00:31:07.934Z,3.23
2019-01-02T00:33:36.549Z,3.17
2019-01-02T00:36:05.750Z,3.47
2019-01-02T00:38:34.784Z,4.83
2019-01-02T00:41:03.755Z,3.60
2019-01-02T00:43:32.522Z,3.80
2019-01-02T00:46:01.724Z,3.67
2019-01-02T00:48:30.312Z,4.20
2019-01-02T00:50:59.108Z,3.87
2019-01-02T00:53:28.108Z,3.20
2019-01-02T00:55:57.053Z,3.57
2019-01-02T00:58:25.648Z,3.30
2019-01-02T01:00:54.799Z,2.53
2019-01-02T01:03:23.467Z,2.90
2019-01-02T01:05:53.161Z,2.50
2019-01-02T01:08:21.869Z,3.10
2019-01-02T01:10:50.900Z,3.53
2019-01-02T01:13:19.510Z,3.30
2019-01-02T01:15:49.002Z,4.30
2019-01-02T01:18:17.592Z,2.67
2019-01-02T01:20:46.862Z,4.17
2019-01-02T01:23:15.742Z,3.00
2019-01-02T01:25:44.843Z,3.47
2019-01-02T01:28:13.608Z,3.20
2019-01-02T01:30:45.491Z,3.80
2019-01-02T01:33:14.484Z,3.80
2019-01-02T01:35:43.584Z,4.10
2019-01-02T01:38:12.343Z,3.33
2019-01-02T01:40:41.415Z,4.43
2019-01-02T01:43:11.441Z,3.03
2019-01-02T01:45:40.853Z,2.73
2019-01-02T01:48:09.594Z,3.23
2019-01-02T01:50:38.317Z,2.97
2019-01-02T01:53:07.533Z,2.93
2019-01-02T01:55:36.674Z,3.80
2019-01-02T01:58:05.528Z,3.87
2019-01-02T02:00:34.333Z,3.63
2019-01-02T02:03:03.188Z,2.67
2019-01-02T02:05:32.221Z,3.40
2019-01-02T02:08:01.377Z,2.97
2019-01-02T02:10:30.159Z,2.87
2019-01-02T02:12:59.221Z,3.40
2019-01-02T02:15:28.181Z,3.13
2019-01-02T02:17:59.021Z,3.93
2019-01-02T02:20:27.834Z,3.20
2019-01-02T02:22:56.757Z,3.83
2019-01-02T02:25:25.992Z,3.80
2019-01-02T02:27:54.862Z,3.40
2019-01-02T02:30:24.468Z,3.10
2019-01-02T02:32:53.262Z,4.80
2019-01-02T02:35:22.472Z,5.83
2019-01-02T02:37:51.911Z,4.07
2019-01-02T02:40:20.699Z,4.40
2019-01-02T02:42:49.515Z,4.57
2019-01-02T02:45:19.078Z,3.37
2019-01-02T02:47:48.113Z,4.30
2019-01-02T02:50:17.201Z,4.03
2019-01-02T02:52:46.516Z,4.43
2019-01-02T02:55:20.094Z,3.70
2019-01-02T02:57:48.732Z,4.10
2019-01-02T03:00:17.806Z,3.93
2019-01-02T03:02:48.312Z,3.43
2019-01-02T03:05:17.088Z,3.00
2019-01-02T03:08:25.780Z,3.23
2019-01-02T03:10:54.769Z,3.27
2019-01-02T03:13:26.464Z,3.97
2019-01-02T03:15:55.938Z,3.80
2019-01-02T03:21:12.776Z,3.97
2019-01-02T03:23:41.697Z,5.17
2019-01-02T03:26:10.446Z,5.20
2019-01-02T03:28:39.346Z,5.13
2019-01-02T03:31:08.326Z,4.10
2019-01-02T03:33:40.071Z,4.77
2019-01-02T03:36:11.642Z,4.00
2019-01-02T03:38:40.509Z,4.13
2019-01-02T03:41:09.368Z,3.87
2019-01-02T03:43:38.529Z,4.00
2019-01-02T03:46:07.209Z,3.77
2019-01-02T03:48:36.681Z,3.93
2019-01-02T03:51:05.684Z,5.60
2019-01-02T03:53:36.505Z,3.47
2019-01-02T03:56:05.342Z,3.20
2019-01-02T03:58:34.306Z,3.80
2019-01-02T04:01:02.857Z,4.27
2019-01-02T04:03:31.479Z,3.67
2019-01-02T04:06:00.260Z,3.83
2019-01-02T04:08:29.124Z,3.80
2019-01-02T04:11:00.740Z,3.77
2019-01-02T04:13:29.389Z,3.47
2019-01-02T04:15:58.064Z,3.63
2019-01-02T04:18:26.816Z,4.53
2019-01-02T04:20:55.738Z,3.57
2019-01-02T04:23:27.439Z,3.60
2019-01-02T04:25:59.351Z,3.53
2019-01-02T04:28:28.171Z,3.87
2019-01-02T04:30:56.827Z,3.03
2019-01-02T04:33:25.484Z,3.63
2019-01-02T04:35:54.191Z,3.63
2019-01-02T04:38:22.980Z,4.30
2019-01-02T04:40:55.935Z,4.13
2019-01-02T04:43:26.087Z,3.60
2019-01-02T04:45:56.476Z,3.40
2019-01-02T04:48:31.430Z,3.73
2019-01-02T04:51:00.490Z,3.20
2019-01-02T04:53:29.957Z,4.13
2019-01-02T04:55:58.735Z,3.00
2019-01-02T04:58:29.189Z,4.07
2019-01-02T05:01:01.875Z,2.90
2019-01-02T05:03:30.502Z,3.00
2019-01-02T05:05:59.279Z,2.83
2019-01-02T05:08:28.370Z,3.07
2019-01-02T05:10:57.070Z,3.70
2019-01-02T05:13:25.911Z,3.63
2019-01-02T05:15:54.655Z,2.73
2019-01-02T05:18:23.284Z,3.23
2019-01-02T05:20:52.063Z,4.27
2019-01-02T05:23:21.144Z,3.00
2019-01-02T05:25:49.798Z,3.23
2019-01-02T05:28:18.547Z,3.93
2019-01-02T05:30:47.322Z,2.93
2019-01-02T05:33:16.018Z,3.27
2019-01-02T05:35:48.605Z,3.30
2019-01-02T05:38:17.550Z,2.80
2019-01-02T05:40:49.240Z,2.77
2019-01-02T05:43:17.877Z,2.20
2019-01-02T05:45:46.868Z,3.00
2019-01-02T05:48:15.557Z,2.77
2019-01-02T05:50:44.364Z,3.10
2019-01-02T05:53:13.162Z,2.80
2019-01-02T05:55:41.860Z,3.73
2019-01-02T05:58:10.568Z,2.93
2019-01-02T06:00:39.950Z,3.17
2019-01-02T06:03:08.736Z,4.00
2019-01-02T06:05:37.638Z,4.23
2019-01-02T06:08:06.288Z,4.40
2019-01-02T06:10:34.922Z,3.33
2019-01-02T06:13:04.622Z,3.53
2019-01-02T06:15:33.318Z,4.27
2019-01-02T06:18:02.077Z,3.97
2019-01-02T06:20:30.793Z,4.07
2019-01-02T06:22:59.589Z,3.90
2019-01-02T06:25:28.317Z,4.57
2019-01-02T06:27:56.954Z,3.47
2019-01-02T06:30:25.599Z,3.20
2019-01-02T06:32:54.266Z,3.60
2019-01-02T06:35:22.916Z,3.73
2019-01-02T06:37:51.498Z,3.70
2019-01-02T06:40:20.337Z,2.70
2019-01-02T06:42:48.947Z,4.37
2019-01-02T06:45:18.265Z,3.60
2019-01-02T06:47:46.882Z,2.27
2019-01-02T06:50:24.639Z,2.83
2019-01-02T06:52:53.383Z,2.80
2019-01-02T06:55:22.230Z,3.20
2019-01-02T06:57:59.885Z,3.00
2019-01-02T07:00:30.134Z,3.60
2019-01-02T07:02:58.842Z,3.40
2019-01-02T07:05:27.700Z,3.43
2019-01-02T07:07:56.427Z,3.90
2019-01-02T07:10:25.122Z,3.00
2019-01-02T07:12:54.183Z,3.67
2019-01-02T07:15:23.630Z,3.37
2019-01-02T07:17:52.219Z,3.77
2019-01-02T07:20:20.794Z,3.10
2019-01-02T07:22:49.526Z,3.20
2019-01-02T07:25:18.219Z,3.90
2019-01-02T07:27:46.965Z,3.60
2019-01-02T07:30:17.015Z,3.23
2019-01-02T07:32:45.711Z,3.70
2019-01-02T07:35:42.958Z,3.47
2019-01-02T07:38:19.583Z,3.03
2019-01-02T07:41:16.921Z,3.50
2019-01-02T07:44:13.605Z,3.47
2019-01-02T07:47:01.565Z,4.10
2019-01-02T07:50:07.724Z,3.43
2019-01-02T07:52:54.713Z,3.30
2019-01-02T07:55:35.419Z,3.30
2019-01-02T07:58:35.088Z,2.67
2019-01-02T08:01:17.190Z,2.93
2019-01-02T08:04:11.151Z,3.07
2019-01-02T08:06:45.522Z,2.60
2019-01-02T08:09:36.637Z,3.10
2019-01-02T08:12:19.310Z,4.03
2019-01-02T08:15:10.532Z,2.87
2019-01-02T08:17:49.782Z,4.27
2019-01-02T08:20:43.883Z,3.70
2019-01-02T08:23:30.180Z,3.30
2019-01-02T08:26:16.275Z,3.80
2019-01-02T08:29:16.297Z,3.10
2019-01-02T08:31:55.274Z,2.90
2019-01-02T08:34:41.684Z,3.20
2019-01-02T08:37:33.357Z,3.70
2019-01-02T08:40:18.046Z,3.07
2019-01-02T08:43:11.612Z,3.47
2019-01-02T08:45:58.190Z,3.67
2019-01-02T08:48:50.234Z,2.73
2019-01-02T08:51:41.144Z,3.40
2019-01-02T08:54:27.186Z,3.70
2019-01-02T08:57:17.858Z,3.10
2019-01-02T09:00:11.883Z,3.43
2019-01-02T09:02:58.260Z,2.93
2019-01-02T09:05:40.552Z,3.40
2019-01-02T09:08:40.541Z,2.43
2019-01-02T09:11:26.945Z,2.83
2019-01-02T09:14:14.945Z,3.30
2019-01-02T09:16:53.005Z,2.93
2019-01-02T09:19:52.614Z,3.13
2019-01-02T09:22:55.786Z,2.90
2019-01-02T09:25:52.771Z,4.20
2019-01-02T09:28:26.127Z,3.43
2019-01-02T09:31:08.361Z,3.97
2019-01-02T09:34:11.047Z,4.57
2019-01-02T09:37:17.048Z,3.50
2019-01-02T09:39:56.390Z,3.63
2019-01-02T09:42:42.737Z,3.40
2019-01-02T09:45:39.633Z,2.40
2019-01-02T09:48:42.568Z,3.20
2019-01-02T09:51:41.938Z,3.13
2019-01-02T09:54:23.580Z,2.97
2019-01-02T09:57:13.298Z,3.37
2019-01-02T09:59:58.929Z,4.37
2019-01-02T10:02:34.318Z,3.17
2019-01-02T10:05:42.952Z,3.73
2019-01-02T10:08:34.188Z,3.80
2019-01-02T10:11:17.733Z,3.90
2019-01-02T10:14:14.769Z,3.77
2019-01-02T10:17:01.203Z,3.60
2019-01-02T10:19:52.265Z,3.87
2019-01-02T10:22:48.974Z,3.40
2019-01-02T10:25:36.263Z,4.20
2019-01-02T10:28:22.539Z,4.03
2019-01-02T10:31:15.596Z,4.03
2019-01-02T10:34:01.631Z,3.20
2019-01-02T10:36:54.549Z,3.60
2019-01-02T10:39:53.045Z,3.60
2019-01-02T10:46:44.761Z,3.37
2019-01-02T10:49:37.389Z,2.70
2019-01-02T10:52:37.262Z,2.60
2019-01-02T10:55:12.285Z,3.00
2019-01-02T10:58:06.321Z,3.10
2019-01-02T11:01:06.038Z,2.90
2019-01-02T11:03:54.389Z,4.47
2019-01-02T11:06:33.060Z,3.17
2019-01-02T11:09:12.500Z,2.83
2019-01-02T11:11:55.502Z,3.60
2019-01-02T11:14:44.154Z,3.33
2019-01-02T11:17:24.543Z,4.27
2019-01-02T11:20:12.619Z,3.40
2019-01-02T11:23:07.524Z,3.80
2019-01-02T11:25:56.213Z,4.10
2019-01-02T11:28:56.401Z,4.83
2019-01-02T11:31:50.084Z,4.60
2019-01-02T11:34:59.407Z,4.57
2019-01-02T11:37:47.233Z,4.13
2019-01-02T11:40:35.947Z,3.90
2019-01-02T11:43:23.977Z,4.40
2019-01-02T11:45:52.850Z,4.27
2019-01-02T11:48:21.600Z,5.37
2019-01-02T11:50:50.429Z,4.17
2019-01-02T11:53:18.956Z,3.77
2019-01-02T11:55:47.580Z,4.70
2019-01-02T11:58:16.449Z,4.23
2019-01-02T12:00:46.777Z,5.23
2019-01-02T12:03:15.501Z,4.50
2019-01-02T12:05:44.279Z,4.53
2019-01-02T12:08:13.022Z,4.03
2019-01-02T12:10:41.736Z,4.00
2019-01-02T12:13:10.772Z,4.03
2019-01-02T12:15:39.477Z,4.77
2019-01-02T12:18:08.285Z,3.90
2019-01-02T12:20:36.973Z,4.17
2019-01-02T12:23:05.655Z,3.50
2019-01-02T12:25:34.293Z,4.10
2019-01-02T12:28:03.199Z,4.30
2019-01-02T12:30:31.911Z,3.77
2019-01-02T12:33:00.664Z,3.83
2019-01-02T12:35:29.399Z,3.40
2019-01-02T12:37:58.167Z,5.37
2019-01-02T12:40:27.262Z,3.47
2019-01-02T12:42:55.956Z,3.37
2019-01-02T12:45:24.699Z,3.53
2019-01-02T12:47:55.397Z,3.63
2019-01-02T12:50:24.282Z,4.20
2019-01-02T12:52:53.215Z,3.13
2019-01-02T12:55:21.966Z,3.10
2019-01-02T12:57:51.359Z,3.67
2019-01-02T13:00:20.180Z,3.87
2019-01-02T13:03:23.302Z,2.73
2019-01-02T13:06:05.750Z,2.80
2019-01-02T13:08:47.976Z,3.40
2019-01-02T13:11:23.638Z,3.27
2019-01-02T13:14:21.075Z,3.20
2019-01-02T13:17:00.946Z,4.50
2019-01-02T13:19:45.423Z,3.67
2019-01-02T13:22:20.180Z,3.17
2019-01-02T13:24:52.372Z,3.87
2019-01-02T13:27:25.798Z,3.57
2019-01-02T13:30:12.134Z,3.13
2019-01-02T13:32:44.841Z,3.50
2019-01-02T13:35:33.737Z,3.43
2019-01-02T13:38:33.888Z,3.77
2019-01-02T13:41:36.807Z,3.67
2019-01-02T13:44:39.693Z,3.63
2019-01-02T13:47:26.067Z,3.43
2019-01-02T13:49:58.366Z,4.67
2019-01-02T13:52:27.096Z,4.03
2019-01-02T13:54:56.978Z,3.80
2019-01-02T13:57:25.978Z,4.13
2019-01-02T13:59:54.723Z,5.03
2019-01-02T14:02:23.273Z,3.67
2019-01-02T14:04:51.923Z,3.60
2019-01-02T14:07:20.596Z,3.93
2019-01-02T14:09:49.476Z,3.50
2019-01-02T14:12:19.023Z,3.57
2019-01-02T14:14:47.559Z,3.47
2019-01-02T14:17:16.268Z,2.77
2019-01-02T14:19:48.002Z,4.17
2019-01-02T14:22:17.142Z,3.13
2019-01-02T14:24:45.933Z,3.20
2019-01-02T14:27:15.486Z,3.53
2019-01-02T14:29:44.407Z,3.20
2019-01-02T14:32:13.413Z,3.10
2019-01-02T14:34:43.270Z,3.90
2019-01-02T14:37:13.805Z,3.00
2019-01-02T14:39:45.387Z,3.80
2019-01-02T14:42:14.116Z,3.83
2019-01-02T14:44:45.370Z,4.20
2019-01-02T14:47:13.944Z,3.67
2019-01-02T14:49:42.667Z,3.40
2019-01-02T14:52:11.367Z,3.97
2019-01-02T14:54:39.939Z,4.53
2019-01-02T14:57:08.636Z,4.07
2019-01-02T14:59:37.217Z,5.40
2019-01-02T15:02:06.337Z,5.30
2019-01-02T15:04:35.020Z,4.50
2019-01-02T15:07:07.607Z,4.20
2019-01-02T15:09:36.036Z,4.23
2019-01-02T15:12:04.949Z,6.10
2019-01-02T15:14:33.622Z,4.60
2019-01-02T15:17:02.170Z,4.00
2019-01-02T15:19:31.135Z,4.10
2019-01-02T15:22:04.847Z,3.50
2019-01-02T15:24:31.286Z,3.83
2019-01-02T15:27:00.071Z,5.03
2019-01-02T15:29:28.824Z,3.40
2019-01-02T15:32:00.338Z,4.13
2019-01-02T15:34:29.155Z,3.43
2019-01-02T15:36:57.588Z,4.30
2019-01-02T15:39:32.286Z,4.00
2019-01-02T15:42:00.949Z,4.00
2019-01-02T15:44:29.566Z,3.60
2019-01-02T15:46:58.185Z,3.33
2019-01-02T15:49:26.781Z,3.67
2019-01-02T15:51:55.191Z,3.27
2019-01-02T15:54:23.581Z,3.07
2019-01-02T15:56:54.242Z,2.93
2019-01-02T15:59:22.951Z,3.10
2019-01-02T16:01:52.175Z,3.50
2019-01-02T16:04:21.071Z,2.93
2019-01-02T16:06:49.688Z,3.60
2019-01-02T16:09:18.393Z,3.17
2019-01-02T16:11:47.405Z,3.10
2019-01-02T16:14:17.042Z,2.90
2019-01-02T16:16:45.854Z,3.50
2019-01-02T16:19:14.544Z,2.93
2019-01-02T16:21:43.226Z,4.53
2019-01-02T16:24:12.047Z,3.03
2019-01-02T16:26:40.769Z,3.17
2019-01-02T16:29:09.372Z,3.70
2019-01-02T16:31:38.139Z,4.20
2019-01-02T16:34:06.813Z,3.90
2019-01-02T16:36:35.463Z,3.43
2019-01-02T16:39:06.037Z,3.47
2019-01-02T16:41:35.116Z,3.77
2019-01-02T16:44:03.753Z,3.90
2019-01-02T16:46:32.436Z,4.33
2019-01-02T16:49:01.227Z,3.93
2019-01-02T16:51:30.063Z,6.40
2019-01-02T16:53:58.785Z,6.63
2019-01-02T16:56:27.392Z,7.93
2019-01-02T16:58:56.055Z,6.97
2019-01-02T17:01:24.869Z,5.50
2019-01-02T17:03:53.834Z,4.23
2019-01-02T17:06:23.045Z,3.73
2019-01-02T17:08:53.502Z,3.03
2019-01-02T17:11:22.234Z,3.07
2019-01-02T17:13:52.205Z,3.27
2019-01-02T17:16:20.718Z,3.40
2019-01-02T17:18:49.505Z,2.80
2019-01-02T17:21:18.548Z,3.53
2019-01-02T17:23:48.692Z,3.43
2019-01-02T17:26:17.331Z,3.00
2019-01-02T17:28:46.245Z,2.97
2019-01-02T17:31:15.054Z,3.67
2019-01-02T17:33:43.781Z,3.33
2019-01-02T17:36:12.620Z,3.30
2019-01-02T17:38:41.382Z,3.70
2019-01-02T17:41:10.258Z,3.70
2019-01-02T17:43:41.952Z,3.27
2019-01-02T17:46:12.850Z,2.93
2019-01-02T17:48:42.216Z,3.47
2019-01-02T17:51:14.706Z,2.73
2019-01-02T17:53:46.797Z,3.00
2019-01-02T17:56:15.526Z,2.90
2019-01-02T17:58:45.570Z,3.53
2019-01-02T18:01:14.331Z,3.60
2019-01-02T18:03:43.279Z,3.57
2019-01-02T18:06:12.654Z,3.00
2019-01-02T18:08:41.576Z,4.00
2019-01-02T18:11:10.866Z,2.80
2019-01-02T18:13:41.323Z,3.60
2019-01-02T18:16:10.204Z,5.07
2019-01-02T18:18:41.063Z,4.13
2019-01-02T18:21:12.482Z,4.33
2019-01-02T18:23:43.168Z,3.53
2019-01-02T18:26:14.778Z,4.00
2019-01-02T18:28:44.802Z,3.97
2019-01-02T18:31:14.028Z,3.63
2019-01-02T18:33:51.833Z,4.03
2019-01-02T18:36:22.944Z,4.03
2019-01-02T18:38:51.497Z,4.20
2019-01-02T18:41:22.477Z,4.60
2019-01-02T18:43:51.460Z,3.70
2019-01-02T18:46:20.178Z,6.03
2019-01-02T18:48:48.907Z,4.07
2019-01-02T18:51:17.697Z,3.67
2019-01-02T18:53:55.257Z,3.60
2019-01-02T18:56:24.135Z,3.17
2019-01-02T18:58:52.854Z,3.03
2019-01-02T19:01:21.694Z,3.50
2019-01-02T19:03:50.464Z,3.53
2019-01-02T19:06:22.237Z,3.40
2019-01-02T19:08:52.184Z,5.03
2019-01-02T19:11:21.208Z,4.47
2019-01-02T19:13:50.001Z,3.73
2019-01-02T19:16:24.045Z,3.77
2019-01-02T19:18:53.483Z,3.40
2019-01-02T19:21:22.411Z,3.50
2019-01-02T19:23:51.227Z,4.10
2019-01-02T19:26:20.232Z,4.17
2019-01-02T19:28:48.867Z,4.23
2019-01-02T19:31:17.498Z,3.37
2019-01-02T19:33:46.371Z,3.43
2019-01-02T19:36:15.248Z,3.53
2019-01-02T19:38:44.174Z,3.47
2019-01-02T19:41:13.203Z,3.47
2019-01-02T19:43:45.061Z,4.43
2019-01-02T19:46:13.886Z,4.07
2019-01-02T19:48:43.821Z,4.53
2019-01-02T19:51:12.579Z,4.30
2019-01-02T19:53:41.379Z,4.10
2019-01-02T19:56:10.462Z,4.87
2019-01-02T19:58:48.682Z,4.23
2019-01-02T20:01:21.089Z,5.93
2019-01-02T20:04:02.921Z,4.80
2019-01-02T20:06:31.872Z,4.20
2019-01-02T20:09:01.932Z,3.63
2019-01-02T20:11:43.041Z,3.37
2019-01-02T20:14:12.106Z,4.50
2019-01-02T20:16:43.563Z,2.80
2019-01-02T20:19:14.529Z,3.00
2019-01-02T20:25:01.499Z,2.30
2019-01-02T20:27:38.114Z,2.27
2019-01-02T20:30:40.366Z,2.47
2019-01-02T20:33:35.077Z,2.00
2019-01-02T20:45:22.104Z,2.13
2019-01-02T20:53:58.039Z,2.37
2019-01-02T21:03:37.553Z,2.80
2019-01-02T21:07:10.605Z,2.30
2019-01-02T21:09:36.925Z,1.90
2019-01-02T21:12:05.475Z,1.97
2019-01-02T21:14:34.280Z,2.33
2019-01-02T21:17:02.967Z,2.20
2019-01-02T21:19:31.586Z,1.70
2019-01-02T21:22:00.635Z,2.03
2019-01-02T21:24:29.592Z,1.57
2019-01-02T21:26:58.737Z,2.00
2019-01-02T21:29:32.252Z,1.87
2019-01-02T21:32:00.862Z,1.83
2019-01-02T21:34:32.032Z,2.03
2019-01-02T21:37:03.254Z,2.40
2019-01-02T21:39:34.090Z,2.27
2019-01-02T21:42:03.724Z,1.70
2019-01-02T21:44:41.269Z,1.90
2019-01-02T21:47:15.819Z,1.97
2019-01-02T21:49:47.894Z,2.07
2019-01-02T21:52:19.717Z,1.97
2019-01-02T21:54:50.197Z,2.33
2019-01-02T21:57:25.785Z,1.40
2019-01-02T21:59:59.005Z,1.90
2019-01-02T22:04:54.805Z,1.80
2019-01-02T22:05:18.026Z,2.10
2019-01-02T22:07:47.179Z,2.53
2019-01-02T22:10:16.841Z,1.83
2019-01-02T22:12:49.624Z,1.87
2019-01-02T22:15:29.618Z,2.30
2019-01-02T22:17:58.623Z,1.97
2019-01-02T22:20:32.250Z,2.30
2019-01-02T22:23:05.505Z,2.20
2019-01-02T22:25:34.148Z,1.97
2019-01-02T22:28:04.778Z,1.67
2019-01-02T22:30:36.298Z,2.67
2019-01-02T22:33:24.207Z,1.83
2019-01-02T22:35:59.362Z,2.10
2019-01-02T22:38:35.948Z,3.13
2019-01-02T22:41:04.712Z,2.17
2019-01-02T22:43:33.556Z,2.27
2019-01-02T22:46:02.545Z,2.53
2019-01-02T22:48:31.418Z,2.77
2019-01-02T22:51:01.728Z,2.67
2019-01-02T22:53:30.518Z,2.63
2019-01-02T22:55:59.295Z,3.80
2019-01-02T22:58:28.615Z,2.67
2019-01-02T23:01:06.930Z,2.27
2019-01-02T23:03:57.458Z,2.40
2019-01-02T23:06:54.344Z,2.33
2019-01-02T23:09:40.266Z,2.10
2019-01-02T23:12:34.085Z,2.20
2019-01-02T23:15:24.269Z,2.90
2019-01-02T23:18:10.442Z,2.40
2019-01-02T23:20:56.539Z,2.30
2019-01-02T23:23:56.628Z,2.30
2019-01-02T23:26:53.063Z,1.93
2019-01-02T23:29:40.787Z,1.70
2019-01-02T23:32:27.421Z,2.70
2019-01-02T23:35:21.276Z,1.90
2019-01-02T23:38:07.810Z,2.03
2019-01-02T23:41:02.262Z,2.40
2019-01-02T23:43:48.581Z,2.20
2019-01-02T23:46:34.876Z,2.77
2019-01-02T23:49:19.987Z,1.93
2019-01-02T23:52:07.753Z,2.53
2019-01-02T23:55:07.179Z,2.27
2019-01-02T23:57:54.280Z,1.87
